Time;durP1;ratioP1;P1;durP2;ratioP2;P2;SDS_P1;SDS_P2;PMS_P1;PMS_P2;Temp;Humidity;BMP_temperature;BMP_pressure;BME280_temperature;BME280_humidity;BME280_pressure;Samples;Min_cycle;Max_cycle;Signal;HPM_P1;HPM_P2
2022/08/07 00:01:12;;;;;;;2.23;1.80;;;;;;;18.78;43.36;156189.22;5016712;28;20455;-79
2022/08/07 00:03:39;;;;;;;2.20;1.70;;;;;;;18.68;43.56;156164.50;5013688;28;20455;-78
2022/08/07 00:06:07;;;;;;;6.20;2.17;;;;;;;18.63;43.90;156150.16;5016282;28;20483;-78
2022/08/07 00:08:35;;;;;;;2.43;1.73;;;;;;;18.41;44.71;156092.78;4997949;28;20441;-78
2022/08/07 00:11:03;;;;;;;2.00;1.90;;;;;;;18.31;44.19;156068.06;5008589;28;20869;-78
2022/08/07 00:13:30;;;;;;;3.10;1.77;;;;;;;18.31;44.84;156066.75;5014923;28;20471;-78
2022/08/07 00:15:56;;;;;;;2.40;1.90;;;;;;;18.23;44.61;156048.53;5029182;28;20488;-78
2022/08/07 00:18:25;;;;;;;2.00;1.87;;;;;;;18.16;44.95;156030.25;5031033;28;20448;-78
2022/08/07 00:20:53;;;;;;;2.30;2.10;;;;;;;18.09;45.20;156012.03;4997037;28;20560;-78
2022/08/07 00:23:21;;;;;;;3.80;2.33;;;;;;;18.07;45.19;156006.84;5014418;28;20506;-78
2022/08/07 00:25:48;;;;;;;2.40;1.70;;;;;;;18.25;45.28;156052.41;4985832;28;20452;-78
2022/08/07 00:28:15;;;;;;;4.00;2.30;;;;;;;18.24;44.97;156051.09;5013817;28;20428;-78
2022/08/07 00:30:42;;;;;;;2.10;1.90;;;;;;;18.21;45.17;156043.28;4994765;28;20842;-78
2022/08/07 00:33:08;;;;;;;2.13;1.97;;;;;;;18.08;45.55;156008.16;4991224;28;20572;-78
2022/08/07 00:35:35;;;;;;;2.20;2.00;;;;;;;18.21;45.35;156042.00;4994409;28;20515;-78
2022/08/07 00:38:02;;;;;;;2.30;2.10;;;;;;;18.15;46.03;156027.69;4995532;28;21000;-78
2022/08/07 00:40:31;;;;;;;2.93;2.10;;;;;;;18.11;45.33;156017.25;4982206;28;20959;-77
2022/08/07 00:42:58;;;;;;;2.03;1.70;;;;;;;18.10;45.63;156014.66;4994487;28;20440;-78
2022/08/07 00:45:24;;;;;;;2.40;1.70;;;;;;;18.04;46.08;155999.03;5013846;28;20445;-78
2022/08/07 00:47:51;;;;;;;2.10;2.00;;;;;;;17.96;45.93;155976.88;4996899;28;20511;-78
2022/08/07 00:50:18;;;;;;;1.90;1.80;;;;;;;17.93;46.42;155969.06;4989705;28;20457;-78
2022/08/07 00:52:45;;;;;;;2.60;2.40;;;;;;;17.89;46.61;155959.97;4975641;28;20504;-78
2022/08/07 00:55:12;;;;;;;2.00;1.80;;;;;;;17.91;46.60;155963.88;4993139;28;20430;-77
2022/08/07 00:57:40;;;;;;;2.73;2.00;;;;;;;17.90;46.92;155962.56;4976337;28;20528;-78
2022/08/07 01:00:08;;;;;;;3.60;2.20;;;;;;;17.74;47.06;155920.88;4991301;28;20522;-78
2022/08/07 01:02:35;;;;;;;2.50;2.10;;;;;;;17.71;47.48;155911.81;5010062;28;21034;-78
2022/08/07 01:05:05;;;;;;;3.33;2.27;;;;;;;17.72;47.89;155915.69;4995598;28;20425;-78
2022/08/07 01:07:32;;;;;;;3.17;2.47;;;;;;;17.70;47.69;155910.50;5007018;28;20475;-78
2022/08/07 01:09:59;;;;;;;2.40;2.20;;;;;;;17.58;47.67;155879.22;4994792;28;20444;-78
2022/08/07 01:12:26;;;;;;;2.13;1.93;;;;;;;17.63;48.08;155892.28;4977365;28;20464;-78
2022/08/07 01:14:56;;;;;;;2.30;2.10;;;;;;;17.63;48.42;155892.28;4995358;28;20437;-78
2022/08/07 01:17:23;;;;;;;2.73;2.17;;;;;;;17.62;48.36;155890.97;4995770;28;20472;-78
2022/08/07 01:19:52;;;;;;;4.10;2.40;;;;;;;17.70;48.37;155909.19;4973409;28;20875;-77
2022/08/07 01:22:20;;;;;;;2.77;2.57;;;;;;;17.63;48.14;155893.53;4975253;28;20434;-77
2022/08/07 01:24:47;;;;;;;3.07;2.67;;;;;;;17.66;48.22;155898.78;4979673;28;20475;-77
2022/08/07 01:27:14;;;;;;;2.47;2.27;;;;;;;17.58;48.75;155879.22;5014518;28;20443;-78
2022/08/07 01:29:42;;;;;;;2.90;2.60;;;;;;;17.45;48.54;155845.34;4996934;28;20819;-78
2022/08/07 01:32:08;;;;;;;2.70;2.50;;;;;;;17.45;49.28;155845.34;5027300;28;20481;-78
2022/08/07 01:34:35;;;;;;;2.57;2.37;;;;;;;17.39;49.84;155831.06;5005354;28;20941;-78
2022/08/07 01:37:08;;;;;;;2.43;2.23;;;;;;;17.30;49.20;155806.28;5015063;28;20866;-78
2022/08/07 01:39:36;;;;;;;2.53;2.33;;;;;;;17.40;49.99;155832.31;5013563;28;20554;-78
2022/08/07 01:42:07;;;;;;;2.77;2.57;;;;;;;17.37;50.07;155824.50;4997958;28;20554;-78
2022/08/07 01:44:36;;;;;;;3.67;3.33;;;;;;;17.35;50.05;155819.31;5014160;28;20443;-78
2022/08/07 01:47:03;;;;;;;2.70;2.50;;;;;;;17.43;49.65;155840.13;5014235;28;20447;-79
2022/08/07 01:49:31;;;;;;;2.17;1.97;;;;;;;17.32;50.24;155812.81;4992397;28;20487;-77
2022/08/07 01:51:59;;;;;;;2.27;2.10;;;;;;;17.26;50.76;155797.16;4999132;28;20440;-78
2022/08/07 01:54:27;;;;;;;2.20;2.00;;;;;;;17.16;50.99;155769.84;5031882;28;20440;-78
2022/08/07 01:57:02;;;;;;;3.70;2.53;;;;;;;17.16;51.20;155769.84;4998366;28;20455;-78
2022/08/07 01:59:32;;;;;;;2.00;1.80;;;;;;;17.10;51.40;155754.25;4996281;28;20456;-77
2022/08/07 02:02:04;;;;;;;2.47;2.27;;;;;;;17.10;51.21;155754.25;4997516;28;20945;-78
2022/08/07 02:04:39;;;;;;;2.43;2.23;;;;;;;17.04;51.87;155741.25;5013289;28;20432;-78
2022/08/07 02:07:12;;;;;;;3.20;3.00;;;;;;;16.98;52.16;155725.63;5030978;28;20439;-78
2022/08/07 02:09:39;;;;;;;3.13;2.37;;;;;;;16.95;52.45;155716.50;5029407;28;20483;-78
2022/08/07 02:12:16;;;;;;;2.67;2.47;;;;;;;16.97;52.12;155723.00;5030786;28;20479;-77
2022/08/07 02:14:50;;;;;;;6.03;3.10;;;;;;;16.98;52.38;155724.31;5012243;28;20458;-78
2022/08/07 02:17:23;;;;;;;2.47;2.33;;;;;;;16.94;52.97;155715.19;4983327;28;20451;-78
2022/08/07 02:19:51;;;;;;;2.80;2.60;;;;;;;17.02;52.86;155734.75;5013598;28;21105;-78
2022/08/07 02:22:19;;;;;;;3.33;2.73;;;;;;;16.96;52.52;155720.44;4997248;28;20444;-77
2022/08/07 02:24:48;;;;;;;2.63;2.43;;;;;;;16.84;53.04;155689.19;4977975;28;20587;-78
2022/08/07 02:27:18;;;;;;;2.70;2.40;;;;;;;16.77;53.25;155670.97;4994674;28;20440;-78
2022/08/07 02:29:46;;;;;;;2.60;2.40;;;;;;;16.73;53.92;155659.28;4993945;28;20494;-77
2022/08/07 02:32:13;;;;;;;3.80;2.40;;;;;;;16.75;54.00;155665.78;4999136;28;20475;-77
2022/08/07 02:34:41;;;;;;;3.30;2.67;;;;;;;16.76;53.50;155668.38;5013155;28;20435;-78
2022/08/07 02:37:10;;;;;;;3.00;2.33;;;;;;;16.78;54.07;155673.59;5013389;28;20456;-79
2022/08/07 02:39:39;;;;;;;2.90;2.70;;;;;;;16.71;54.42;155655.34;5012662;28;20440;-78
2022/08/07 02:42:08;;;;;;;2.60;2.40;;;;;;;16.75;54.47;155665.78;4997265;28;20454;-78
2022/08/07 02:44:36;;;;;;;2.57;2.37;;;;;;;16.72;54.92;155657.97;4996491;28;20848;-77
2022/08/07 02:47:05;;;;;;;4.23;2.53;;;;;;;16.68;54.77;155647.53;5011978;28;20459;-77
2022/08/07 02:49:33;;;;;;;2.80;2.50;;;;;;;16.68;55.09;155647.53;5006216;28;20452;-78
2022/08/07 02:52:04;;;;;;;3.03;2.83;;;;;;;16.68;54.88;155647.53;4994160;28;20772;-77
2022/08/07 02:54:32;;;;;;;3.10;2.80;;;;;;;16.64;55.36;155637.16;4977301;28;20488;-77
2022/08/07 02:57:01;;;;;;;2.60;2.40;;;;;;;16.47;55.66;155592.88;4986895;28;20468;-78
2022/08/07 02:59:29;;;;;;;3.30;2.60;;;;;;;16.46;55.70;155590.28;4995167;28;20538;-77
2022/08/07 03:02:02;;;;;;;2.90;2.60;;;;;;;16.53;55.41;155608.53;4977425;28;20453;-77
2022/08/07 03:04:30;;;;;;;3.33;2.60;;;;;;;16.55;55.88;155612.47;4976969;28;20433;-78
2022/08/07 03:06:57;;;;;;;2.60;2.40;;;;;;;16.54;55.89;155611.16;5002979;28;20510;-78
2022/08/07 03:09:25;;;;;;;2.70;2.50;;;;;;;16.49;55.95;155598.09;5011136;28;20565;-78
2022/08/07 03:11:53;;;;;;;2.90;2.70;;;;;;;16.51;56.07;155601.97;5031737;28;20448;-78
2022/08/07 03:14:21;;;;;;;3.00;2.80;;;;;;;16.41;56.64;155578.56;5033419;28;20479;-78
2022/08/07 03:16:48;;;;;;;3.30;3.00;;;;;;;16.42;56.74;155579.88;5000930;28;20877;-78
2022/08/07 03:19:16;;;;;;;3.00;2.80;;;;;;;16.37;56.80;155568.16;5000446;28;20447;-77
2022/08/07 03:21:43;;;;;;;2.60;2.40;;;;;;;16.35;56.85;155561.66;5017214;28;20550;-77
2022/08/07 03:24:10;;;;;;;3.97;2.70;;;;;;;16.20;56.73;155522.66;5003981;28;20477;-78
2022/08/07 03:26:38;;;;;;;3.20;2.53;;;;;;;16.12;57.81;155501.88;4996013;28;20468;-78
2022/08/07 03:29:09;;;;;;;3.40;3.03;;;;;;;16.17;57.27;155514.88;4997983;28;20842;-77
2022/08/07 03:31:37;;;;;;;2.93;2.70;;;;;;;16.20;57.58;155522.66;4982090;28;20480;-78
2022/08/07 03:34:06;;;;;;;2.67;2.47;;;;;;;16.18;57.38;155517.44;4996502;28;20486;-78
2022/08/07 03:36:36;;;;;;;3.10;2.80;;;;;;;16.13;58.01;155504.44;4996887;28;20499;-77
2022/08/07 03:39:05;;;;;;;4.23;2.50;;;;;;;16.16;58.21;155512.25;4980524;28;20447;-77
2022/08/07 03:41:33;;;;;;;2.80;2.60;;;;;;;16.11;58.64;155500.56;5014764;28;20464;-78
2022/08/07 03:44:01;;;;;;;2.70;2.50;;;;;;;16.06;58.72;155487.56;4995714;28;20433;-77
2022/08/07 03:46:31;;;;;;;3.07;2.87;;;;;;;16.08;58.72;155492.75;4995054;28;20491;-79
2022/08/07 03:48:59;;;;;;;3.00;2.80;;;;;;;16.00;58.60;155470.63;4980761;28;20444;-78
2022/08/07 03:51:28;;;;;;;3.00;2.70;;;;;;;16.01;59.49;155473.25;4980804;28;20452;-78
2022/08/07 03:53:56;;;;;;;3.23;2.93;;;;;;;16.03;59.38;155478.44;4996309;28;20481;-78
2022/08/07 03:56:25;;;;;;;3.93;3.33;;;;;;;16.03;59.45;155478.44;4980327;28;20454;-78
2022/08/07 03:58:52;;;;;;;3.20;2.90;;;;;;;16.04;59.33;155482.38;4996790;28;20452;-78
2022/08/07 04:01:19;;;;;;;2.97;2.77;;;;;;;16.03;59.39;155479.75;4980365;28;20456;-79
2022/08/07 04:03:49;;;;;;;3.10;2.90;;;;;;;16.05;59.68;155483.63;4979330;28;20460;-78
2022/08/07 04:06:16;;;;;;;2.87;2.57;;;;;;;16.04;60.06;155481.06;4979665;28;20453;-78
2022/08/07 04:08:43;;;;;;;4.63;2.70;;;;;;;16.03;60.48;155479.75;4996389;28;20451;-78
2022/08/07 04:11:12;;;;;;;2.90;2.57;;;;;;;16.06;59.88;155486.25;4996427;28;20456;-77
2022/08/07 04:13:42;;;;;;;3.20;2.90;;;;;;;16.03;60.24;155478.44;4995408;28;21030;-78
2022/08/07 04:16:09;;;;;;;2.77;2.57;;;;;;;16.03;61.14;155479.75;4976590;28;20933;-78
2022/08/07 04:18:36;;;;;;;2.93;2.60;;;;;;;16.05;60.78;155483.63;4977233;28;20445;-78
2022/08/07 04:21:03;;;;;;;3.10;2.90;;;;;;;16.06;61.11;155486.25;4976861;28;20445;-78
2022/08/07 04:23:32;;;;;;;3.27;2.97;;;;;;;16.04;61.33;155482.38;4977517;28;20627;-77
2022/08/07 04:25:59;;;;;;;3.20;3.00;;;;;;;16.08;61.15;155492.75;5015653;28;20451;-78
2022/08/07 04:28:27;;;;;;;3.03;2.73;;;;;;;16.09;61.43;155495.38;5033964;28;20510;-79
2022/08/07 04:30:55;;;;;;;3.73;3.43;;;;;;;16.05;61.50;155483.63;4998447;28;20542;-79
2022/08/07 04:33:26;;;;;;;3.67;2.93;;;;;;;16.06;61.68;155487.56;5015640;28;20990;-78
2022/08/07 04:35:55;;;;;;;3.63;2.67;;;;;;;16.05;61.36;155483.63;5015177;28;20443;-78
2022/08/07 04:38:26;;;;;;;3.67;3.37;;;;;;;16.06;62.18;155486.25;5014432;28;20490;-77
2022/08/07 04:40:53;;;;;;;3.83;3.53;;;;;;;16.07;61.95;155488.88;4997145;28;20479;-78
2022/08/07 04:43:29;;;;;;;3.60;3.30;;;;;;;16.14;62.03;155507.06;5027220;28;20453;-78
2022/08/07 04:46:03;;;;;;;3.70;3.40;;;;;;;16.17;62.63;155514.88;4979620;28;20460;-78
2022/08/07 04:48:41;;;;;;;3.13;2.93;;;;;;;16.08;62.71;155491.44;5003250;28;20448;-78
2022/08/07 04:51:12;;;;;;;3.00;2.80;;;;;;;16.00;62.80;155470.63;4998334;28;20459;-77
2022/08/07 04:53:42;;;;;;;3.77;3.47;;;;;;;16.06;63.14;155487.56;5013818;28;20476;-78
2022/08/07 04:56:15;;;;;;;3.43;3.13;;;;;;;16.14;63.67;155508.38;5014717;28;20458;-78
2022/08/07 04:58:49;;;;;;;3.53;3.23;;;;;;;16.20;64.29;155522.66;4999614;28;20845;-77
2022/08/07 05:01:20;;;;;;;3.90;3.60;;;;;;;16.29;64.44;155547.34;5014475;28;20546;-77
2022/08/07 05:03:56;;;;;;;4.87;3.50;;;;;;;16.42;64.26;155581.16;4998996;28;20570;-77
2022/08/07 05:06:25;;;;;;;3.67;3.37;;;;;;;16.49;64.43;155596.78;5000606;28;20487;-78
2022/08/07 05:08:59;;;;;;;6.13;4.47;;;;;;;16.76;64.07;155667.09;4990179;28;20503;-77
2022/08/07 05:11:31;;;;;;;4.03;3.73;;;;;;;17.11;63.70;155756.84;5007429;28;20452;-78
2022/08/07 05:14:03;;;;;;;4.40;4.10;;;;;;;17.33;63.34;155814.13;4993564;28;20479;-77
2022/08/07 05:16:31;;;;;;;4.90;4.60;;;;;;;17.62;62.36;155889.66;4999179;28;20530;-78
2022/08/07 05:19:02;;;;;;;5.17;4.20;;;;;;;17.83;62.37;155944.34;4999081;28;20961;-78
2022/08/07 05:21:30;;;;;;;4.50;4.10;;;;;;;17.97;61.94;155980.81;5031493;28;20451;-78
2022/08/07 05:23:58;;;;;;;5.13;4.73;;;;;;;17.97;62.26;155980.81;5013870;28;20485;-78
2022/08/07 05:26:28;;;;;;;4.50;4.20;;;;;;;18.15;61.91;156027.69;5010836;28;20461;-78
2022/08/07 05:29:08;;;;;;;5.17;4.67;;;;;;;18.34;61.58;156074.56;4995299;28;20827;-78
2022/08/07 05:31:38;;;;;;;5.40;4.90;;;;;;;18.47;61.70;156109.78;5010137;28;20459;-78
2022/08/07 05:34:12;;;;;;;5.30;4.77;;;;;;;18.64;61.65;156152.75;4998413;28;20479;-78
2022/08/07 05:36:43;;;;;;;5.30;4.90;;;;;;;18.67;61.45;156160.56;4997186;28;20843;-78
2022/08/07 05:39:20;;;;;;;4.37;4.07;;;;;;;18.77;61.28;156186.66;5008891;28;20463;-79
2022/08/07 05:41:48;;;;;;;4.90;4.50;;;;;;;18.92;61.41;156224.41;5000909;28;20452;-78
2022/08/07 05:44:18;;;;;;;5.50;5.00;;;;;;;19.06;60.84;156260.91;5030885;28;20447;-78
2022/08/07 05:46:46;;;;;;;6.43;5.50;;;;;;;19.16;60.92;156288.28;4997034;28;20450;-79
2022/08/07 05:49:13;;;;;;;5.93;5.20;;;;;;;19.07;61.35;156264.81;4996650;28;20459;-79
2022/08/07 05:51:43;;;;;;;5.60;5.10;;;;;;;19.30;61.06;156324.75;5012691;28;20937;-78
2022/08/07 05:54:10;;;;;;;5.00;4.60;;;;;;;19.59;59.55;156399.09;5015129;28;20469;-78
2022/08/07 05:56:40;;;;;;;5.27;4.87;;;;;;;19.79;59.50;156449.94;5006258;28;20472;-78
2022/08/07 05:59:14;;;;;;;5.87;5.37;;;;;;;19.94;59.70;156490.38;5002115;28;20456;-78
2022/08/07 06:01:43;;;;;;;5.33;4.87;;;;;;;19.95;59.74;156491.69;4977960;28;20433;-78
2022/08/07 06:04:11;;;;;;;6.23;5.40;;;;;;;20.08;59.43;156525.59;5001792;28;20441;-78
2022/08/07 06:06:40;;;;;;;4.73;4.33;;;;;;;20.17;59.06;156549.06;4996802;28;20451;-78
2022/08/07 06:09:09;;;;;;;4.90;4.50;;;;;;;20.50;58.44;156635.19;5003506;28;20461;-78
2022/08/07 06:11:39;;;;;;;5.43;5.00;;;;;;;20.82;57.79;156717.38;4994445;28;20932;-78
2022/08/07 06:14:06;;;;;;;5.60;5.10;;;;;;;21.11;57.05;156791.81;5024451;28;20482;-78
2022/08/07 06:16:34;;;;;;;5.30;4.80;;;;;;;21.21;56.63;156819.22;5013704;28;20482;-78
2022/08/07 06:19:05;;;;;;;5.00;4.60;;;;;;;21.27;56.50;156832.25;5013005;28;20456;-78
2022/08/07 06:21:33;;;;;;;5.93;5.43;;;;;;;21.39;57.16;156864.91;4987118;28;20452;-78
2022/08/07 06:24:00;;;;;;;5.93;5.43;;;;;;;21.52;57.12;156898.84;4994122;28;20495;-78
2022/08/07 06:26:28;;;;;;;5.90;5.07;;;;;;;21.87;56.37;156988.94;5010972;28;20531;-78
2022/08/07 06:28:58;;;;;;;5.33;4.93;;;;;;;21.85;56.56;156983.69;5005839;28;20482;-78
2022/08/07 06:31:27;;;;;;;5.70;5.30;;;;;;;22.04;56.33;157033.38;5004554;28;20850;-79
2022/08/07 06:33:55;;;;;;;5.40;5.00;;;;;;;22.31;55.59;157103.91;5010672;28;20561;-79
2022/08/07 06:36:25;;;;;;;6.10;4.80;;;;;;;22.72;54.34;157209.72;5011659;28;20440;-78
2022/08/07 06:38:55;;;;;;;5.17;4.77;;;;;;;22.59;54.79;157174.41;4999996;28;20453;-79
2022/08/07 06:41:26;;;;;;;4.87;4.47;;;;;;;23.01;53.82;157285.50;4980697;28;20449;-79
2022/08/07 06:43:53;;;;;;;5.07;4.60;;;;;;;23.04;53.24;157293.34;5000846;28;20452;-79
2022/08/07 06:46:21;;;;;;;4.33;4.03;;;;;;;23.30;53.04;157360.00;5030881;28;20462;-79
2022/08/07 06:48:48;;;;;;;4.90;4.50;;;;;;;23.67;52.11;157455.47;4996300;28;20457;-79
2022/08/07 06:51:21;;;;;;;5.03;4.63;;;;;;;23.54;51.48;157421.47;4996854;28;20823;-79
2022/08/07 06:53:51;;;;;;;4.90;4.50;;;;;;;23.52;52.39;157416.25;5013196;28;20800;-79
2022/08/07 06:56:38;;;;;;;4.83;4.43;;;;;;;23.94;50.68;157526.06;4996716;28;20436;-79
2022/08/07 06:59:06;;;;;;;4.33;4.03;;;;;;;24.02;50.21;157547.00;4994563;28;20448;-79
2022/08/07 07:01:34;;;;;;;3.87;3.57;;;;;;;23.91;50.80;157518.22;4993122;28;20440;-79
2022/08/07 07:04:02;;;;;;;4.80;4.50;;;;;;;24.18;50.36;157588.91;5011375;28;20460;-79
2022/08/07 07:06:31;;;;;;;4.80;4.40;;;;;;;24.23;49.75;157600.66;5012650;28;20483;-79
2022/08/07 07:09:16;;;;;;;3.90;3.60;;;;;;;23.98;49.43;157536.56;4997066;28;20551;-80
2022/08/07 07:11:54;;;;;;;4.90;4.50;;;;;;;23.68;50.61;157458.09;5026533;28;20539;-79
2022/08/07 07:14:23;;;;;;;5.30;3.63;;;;;;;24.10;49.55;157567.97;5009739;28;20561;-80
2022/08/07 07:16:51;;;;;;;3.80;3.50;;;;;;;24.17;49.47;157586.25;4992927;28;20480;-79
2022/08/07 07:19:20;;;;;;;3.83;3.53;;;;;;;24.38;49.31;157638.59;4993431;28;20495;-79
2022/08/07 07:21:47;;;;;;;5.27;3.70;;;;;;;24.66;47.88;157711.84;4994039;28;20448;-80
2022/08/07 07:24:15;;;;;;;3.73;3.43;;;;;;;24.33;47.52;157626.78;5005331;28;20475;-79
2022/08/07 07:26:44;;;;;;;3.57;3.27;;;;;;;24.63;46.23;157703.97;5013013;28;20447;-79
2022/08/07 07:29:12;;;;;;;3.23;3.03;;;;;;;24.40;46.54;157643.81;5013225;28;20927;-79
2022/08/07 07:31:41;;;;;;;3.40;3.10;;;;;;;24.35;47.13;157630.75;5036399;28;20486;-79
2022/08/07 07:34:10;;;;;;;3.80;3.43;;;;;;;24.34;46.36;157629.44;5025974;28;20468;-79
2022/08/07 07:36:38;;;;;;;3.33;3.03;;;;;;;24.48;45.84;157664.75;5012848;28;20451;-80
2022/08/07 07:39:05;;;;;;;3.10;2.90;;;;;;;24.57;45.58;157689.59;5028223;28;20455;-79
2022/08/07 07:41:34;;;;;;;2.80;2.60;;;;;;;24.50;46.65;157669.97;5026695;28;20965;-80
2022/08/07 07:44:02;;;;;;;3.30;3.00;;;;;;;24.68;44.96;157717.06;5013126;28;20502;-80
2022/08/07 07:46:30;;;;;;;3.10;2.80;;;;;;;24.75;44.40;157735.41;5003331;28;20543;-79
2022/08/07 07:48:58;;;;;;;3.47;2.43;;;;;;;24.69;44.39;157721.00;4996622;28;20466;-80
2022/08/07 07:51:26;;;;;;;3.57;2.60;;;;;;;24.66;44.16;157711.84;5029124;28;20443;-79
2022/08/07 07:53:55;;;;;;;3.30;3.00;;;;;;;24.57;44.50;157688.31;5029175;28;20547;-79
2022/08/07 07:56:23;;;;;;;3.07;2.87;;;;;;;23.97;44.68;157533.91;5012495;28;20488;-80
2022/08/07 07:58:53;;;;;;;2.30;2.10;;;;;;;23.95;44.95;157527.38;5032143;28;20498;-79
2022/08/07 08:01:21;;;;;;;8.20;2.27;;;;;;;24.39;44.83;157641.19;5014736;28;20457;-79
2022/08/07 08:03:49;;;;;;;9.20;2.67;;;;;;;24.71;43.99;157724.91;5022129;28;20538;-80
2022/08/07 08:06:18;;;;;;;2.60;2.40;;;;;;;24.89;43.73;157770.78;5017510;28;20815;-77
2022/08/07 08:08:45;;;;;;;2.40;2.20;;;;;;;25.19;42.63;157849.25;5014871;28;20574;-79
2022/08/07 08:11:12;;;;;;;2.37;2.17;;;;;;;25.19;41.12;157849.25;5032280;28;20543;-80
2022/08/07 08:13:42;;;;;;;2.60;2.40;;;;;;;25.21;42.10;157854.47;5017489;28;20506;-80
2022/08/07 08:16:15;;;;;;;2.93;2.30;;;;;;;25.24;41.82;157863.66;5013869;28;20576;-80
2022/08/07 08:18:43;;;;;;;2.70;2.50;;;;;;;25.36;41.30;157895.03;5001599;28;20463;-80
2022/08/07 08:27:03;;;;;;;3.67;2.20;;;;;;;25.26;40.72;157868.88;5016717;28;20479;-80
2022/08/07 08:29:27;;;;;;;2.53;2.33;;;;;;;25.28;40.11;157872.84;5015505;28;20505;-80
2022/08/07 08:31:55;;;;;;;3.30;2.30;;;;;;;25.52;39.59;157934.41;5049346;28;20427;-80
2022/08/07 08:34:31;;;;;;;2.90;2.30;;;;;;;25.53;40.21;157938.31;5025275;28;20985;-80
2022/08/07 08:36:59;;;;;;;2.13;1.93;;;;;;;25.79;40.19;158006.38;5027200;28;20440;-80
2022/08/07 08:39:27;;;;;;;2.40;2.20;;;;;;;25.86;39.11;158023.41;5029157;28;20444;-77
2022/08/07 08:41:59;;;;;;;2.57;2.37;;;;;;;25.65;39.68;157968.44;5015551;28;20471;-80
2022/08/07 08:44:28;;;;;;;2.63;2.43;;;;;;;25.62;39.82;157960.56;5033721;28;20834;-79
2022/08/07 08:47:04;;;;;;;2.83;2.60;;;;;;;25.86;40.11;158023.41;5030673;28;20954;-79
2022/08/07 08:49:36;;;;;;;3.50;2.77;;;;;;;25.27;40.18;157870.19;5015355;28;20464;-79
2022/08/07 08:52:08;;;;;;;6.40;2.20;;;;;;;25.08;40.20;157821.78;5015183;28;20443;-79
2022/08/07 08:54:38;;;;;;;2.70;2.50;;;;;;;24.64;41.14;157706.63;5004578;28;20474;-80
2022/08/07 08:57:08;;;;;;;2.40;2.20;;;;;;;24.43;40.74;157651.69;5015684;28;20452;-79
2022/08/07 08:59:47;;;;;;;3.40;2.20;;;;;;;24.06;41.44;157557.47;5012395;28;20441;-79
2022/08/07 09:02:23;;;;;;;2.73;2.10;;;;;;;24.67;39.69;157715.78;4996193;28;20503;-79
2022/08/07 09:04:55;;;;;;;3.17;2.10;;;;;;;24.60;38.68;157696.13;5023157;28;20437;-79
2022/08/07 09:07:33;;;;;;;1.90;1.80;;;;;;;24.71;38.74;157726.22;5011714;28;20471;-79
2022/08/07 09:10:01;;;;;;;2.10;1.90;;;;;;;24.65;37.59;157709.19;5031403;28;20436;-79
2022/08/07 09:12:46;;;;;;;2.27;1.70;;;;;;;24.45;37.12;157656.91;5014239;28;20451;-78
2022/08/07 09:15:25;;;;;;;2.13;1.67;;;;;;;24.81;36.75;157752.44;5032276;28;20522;-76
2022/08/07 09:18:06;;;;;;;3.80;1.90;;;;;;;25.09;36.53;157824.41;5031805;28;20502;-77
2022/08/07 09:20:40;;;;;;;2.43;2.20;;;;;;;24.94;36.84;157783.84;5007586;28;20441;-76
2022/08/07 09:23:13;;;;;;;3.30;1.47;;;;;;;24.02;37.71;157545.69;4979645;28;20552;-76
2022/08/07 09:25:45;;;;;;;2.30;2.10;;;;;;;23.81;38.89;157490.75;5022351;28;20507;-76
2022/08/07 09:28:20;;;;;;;2.53;1.80;;;;;;;23.74;38.90;157472.47;5006927;28;20556;-76
2022/08/07 09:30:56;;;;;;;2.63;2.03;;;;;;;23.60;39.13;157437.16;5030399;28;20447;-77
2022/08/07 09:33:37;;;;;;;2.20;2.00;;;;;;;23.82;39.16;157493.41;5014641;28;20554;-76
2022/08/07 09:36:09;;;;;;;2.47;2.27;;;;;;;24.01;38.87;157544.34;5011566;28;21025;-76
2022/08/07 09:38:43;;;;;;;2.23;2.03;;;;;;;23.84;38.70;157499.94;4999172;28;20456;-76
2022/08/07 09:41:18;;;;;;;3.53;2.10;;;;;;;24.15;38.94;157581.03;5012816;28;20425;-77
2022/08/07 09:43:56;;;;;;;1.80;1.70;;;;;;;23.85;37.18;157501.25;5013583;28;20494;-76
2022/08/07 09:46:36;;;;;;;2.10;1.73;;;;;;;23.47;38.34;157403.19;5030294;28;20447;-76
2022/08/07 09:49:15;;;;;;;1.97;1.77;;;;;;;24.04;37.16;157552.22;5032747;28;20538;-76
2022/08/07 09:51:52;;;;;;;2.17;1.97;;;;;;;24.22;37.04;157599.31;5032239;28;20478;-76
2022/08/07 09:54:26;;;;;;;2.13;1.73;;;;;;;24.12;37.21;157573.19;5009127;28;20453;-76
2022/08/07 09:57:20;;;;;;;2.50;1.83;;;;;;;24.01;35.95;157544.34;5024836;28;20548;-76
2022/08/07 10:00:06;;;;;;;2.97;1.70;;;;;;;24.03;36.28;157548.31;4994526;28;21220;-76
2022/08/07 10:03:10;;;;;;;2.13;1.90;;;;;;;24.20;36.11;157594.09;5023180;28;20792;-76
2022/08/07 10:05:56;;;;;;;1.87;1.77;;;;;;;24.20;34.99;157594.09;5015826;28;20448;-76
2022/08/07 10:08:49;;;;;;;1.67;1.57;;;;;;;23.99;35.69;157537.81;5022220;28;20811;-76
2022/08/07 10:11:28;;;;;;;1.70;1.60;;;;;;;24.13;35.43;157575.81;5022618;28;20484;-76
2022/08/07 10:14:05;;;;;;;1.63;1.40;;;;;;;23.95;35.93;157527.38;4978558;28;20456;-76
2022/08/07 10:16:42;;;;;;;1.67;1.57;;;;;;;23.97;35.98;157532.59;5031177;28;20468;-76
2022/08/07 10:19:25;;;;;;;2.50;1.77;;;;;;;24.26;34.98;157607.19;5024535;28;20853;-76
2022/08/07 10:22:05;;;;;;;1.53;1.43;;;;;;;24.25;35.17;157604.59;4993922;28;20439;-76
2022/08/07 10:24:51;;;;;;;1.83;1.60;;;;;;;24.52;34.26;157676.50;4994428;28;20518;-76
2022/08/07 10:27:29;;;;;;;1.43;1.33;;;;;;;24.18;33.88;157587.56;5031079;28;20558;-76
2022/08/07 10:30:06;;;;;;;1.60;1.50;;;;;;;24.29;33.76;157616.34;5001540;28;20456;-76
2022/08/07 10:33:11;;;;;;;1.50;1.40;;;;;;;24.66;33.21;157711.84;5011604;28;20432;-76
2022/08/07 10:35:50;;;;;;;1.80;1.50;;;;;;;24.47;34.04;157662.13;5015081;28;20575;-76
2022/08/07 10:38:40;;;;;;;1.70;1.50;;;;;;;24.43;34.82;157653.00;5013298;28;20678;-76
2022/08/07 10:41:12;;;;;;;2.10;1.50;;;;;;;24.12;35.65;157573.19;5013880;28;20535;-76
2022/08/07 10:43:44;;;;;;;1.60;1.50;;;;;;;24.36;35.30;157634.66;5012286;28;20896;-76
2022/08/07 10:46:15;;;;;;;1.90;1.53;;;;;;;24.53;34.41;157677.81;5009507;28;20550;-76
2022/08/07 10:48:47;;;;;;;2.37;1.80;;;;;;;24.50;34.08;157669.97;5013831;28;20458;-76
2022/08/07 10:51:17;;;;;;;2.83;1.77;;;;;;;24.60;34.31;157696.13;5013942;28;20424;-76
2022/08/07 10:53:51;;;;;;;2.03;1.60;;;;;;;24.42;33.45;157650.34;5012670;28;20804;-76
2022/08/07 10:56:26;;;;;;;2.10;1.50;;;;;;;24.34;34.00;157628.13;5030027;28;20476;-76
2022/08/07 10:58:59;;;;;;;1.57;1.47;;;;;;;24.40;34.06;157645.13;5014332;28;20867;-76
2022/08/07 11:01:37;;;;;;;1.50;1.40;;;;;;;24.34;35.17;157628.13;5029890;28;20564;-76
2022/08/07 11:04:10;;;;;;;1.73;1.63;;;;;;;24.23;35.52;157600.66;5028375;28;20467;-76
2022/08/07 11:06:43;;;;;;;1.90;1.50;;;;;;;24.04;34.74;157550.94;5009814;28;20440;-75
2022/08/07 11:09:14;;;;;;;1.27;1.17;;;;;;;23.87;35.02;157506.47;5010570;28;20974;-75
2022/08/07 11:11:44;;;;;;;1.57;1.43;;;;;;;23.75;35.53;157475.13;5011428;28;20456;-75
2022/08/07 11:14:17;;;;;;;2.27;1.40;;;;;;;23.75;35.90;157475.13;4996540;28;20428;-75
2022/08/07 11:16:48;;;;;;;2.73;1.60;;;;;;;24.04;35.75;157552.22;5030256;28;20470;-76
2022/08/07 11:19:20;;;;;;;1.77;1.50;;;;;;;24.17;35.61;157585.00;5008302;28;20917;-75
2022/08/07 11:21:54;;;;;;;1.70;1.60;;;;;;;24.37;35.55;157635.97;5009505;28;20441;-75
2022/08/07 11:24:26;;;;;;;1.60;1.50;;;;;;;24.17;35.04;157586.25;5025933;28;20479;-76
2022/08/07 11:26:57;;;;;;;1.90;1.67;;;;;;;24.28;34.87;157612.44;5030730;28;20554;-76
2022/08/07 11:29:29;;;;;;;1.73;1.50;;;;;;;24.26;35.01;157607.19;5031135;28;20538;-75
2022/08/07 11:32:03;;;;;;;3.17;1.67;;;;;;;24.34;34.90;157628.13;5012331;28;20487;-76
2022/08/07 11:34:36;;;;;;;2.70;1.53;;;;;;;24.34;34.94;157629.44;5032294;28;20799;-75
2022/08/07 11:37:07;;;;;;;1.60;1.50;;;;;;;24.38;34.48;157638.59;4999008;28;20489;-75
2022/08/07 11:39:55;;;;;;;1.50;1.40;;;;;;;24.17;35.55;157586.25;5032373;28;20568;-75
2022/08/07 11:42:26;;;;;;;1.70;1.50;;;;;;;24.34;35.14;157629.44;5032132;28;20466;-75
2022/08/07 11:44:56;;;;;;;2.13;2.03;;;;;;;24.41;35.18;157647.72;5004827;28;20807;-76
2022/08/07 11:47:39;;;;;;;1.60;1.50;;;;;;;24.49;34.60;157667.38;5013118;28;20538;-78